Používaním stránok prevádzkovaných PROFIPILOT, s.r.o. súhlasíte s používaním cookies, ktoré nám pomáhajú zabezpečiť lepšie služby.OK

Briefing

MAPA | METAR | TAF | METEO SITUÁCIA
Sliač
LZSL 252030Z 34005KT CAVOK 15/10 Q1012
Bratislava
LZIB 252030Z VRB05KT CAVOK 17/12 Q1013
Košice
LZKZ 252030Z VRB02KT CAVOK 15/10 Q1010
Lučenec
LZLU 141110Z AUTO 08009KT //// ////// 02/01 Q0994
Piešťany
LZPP 252030Z AUTO VRB01KT 9999 NCD 16/13 Q1012
Poprad
LZTT 252030Z 33004KT 290V010 9999 FEW058 10/08 Q1012
Žilina
LZZI 252030Z 08004KT CAVOK 15/11 Q1013
MAPA | METAR | TAF | METEO SITUÁCIA

Predpoveď na dnes

Polooblačno až oblačno a miestami prehánky, ojedinele búrky, aj s krúpami. Na západe prevažne malá oblačnosť a zrážky len ojedinele. Najvyššia denná teplota 21 až 26 st, na severe väčšinou okolo 19 st. Teplota na horách vo výške 1500 m okolo 12 st. Severozápadný až severný vietor 3 až 9 m/s, v nárazoch miestami okolo 14 m/s (10 až 30, nárazy 50 km/h). Predpokladané množstvo zrážok: do 5, pri búrkach okolo 10 mm

SHMÚ, OMPaV, SD 25.5.2016 12:00 LSEČ

MAPA | METAR | TAF | METEO SITUÁCIA

TAF - Letisková predpoveď

25.05.2016 - 17:00 UTC

TAF AMD LZPP 252010Z 2520/2603 CNL=
 

25.05.2016 - 20:00 UTC

TAF LZSL 252000Z 2521/2606 02004KT CAVOK
     PROB30 TEMPO 2602/2606 4000 BR BKN008=
 TAF LZZI 252000Z 2521/2606 34004KT CAVOK
     PROB30 TEMPO 2521/2523 -TSRA SCT050 SCT055CB
     BECMG 2600/2602 5000 BR SCT005
     PROB30 TEMPO 2602/2606 0600 FG BKN004=
 

25.05.2016 - 20:00 UTC

TAF LZSL 252000Z 2521/2606 02004KT CAVOK
     PROB30 TEMPO 2602/2606 4000 BR BKN008=
 TAF LZZI 252000Z 2521/2606 34004KT CAVOK
     PROB30 TEMPO 2521/2523 -TSRA SCT050 SCT055CB
     BECMG 2600/2602 5000 BR SCT005
     PROB30 TEMPO 2602/2606 0600 FG BKN004=
 

25.05.2016 - 17:00 UTC

TAF LZSL 251700Z 2518/2603 36010KT 9999 SCT060
     PROB40 TEMPO 2518/2519 -SHRA FEW040CB SCT060
     BECMG 2519/2521 35004KT CAVOK=
 TAF LZPP 251700Z 2518/2603 30010KT CAVOK
     BECMG 2519/2521 36006KT=
 TAF LZZI 251700Z 2518/2603 03004KT 9999 SCT060
     TEMPO 2518/2519 34012KT FEW050CB SCT060
     PROB30 TEMPO 2520/2523 -TSRA SCT030 SCT040CB=
 

25.05.2016 - 17:00 UTC

TAF LZIB 251700Z 2518/2618 31010KT CAVOK
     BECMG 2608/2610 9999 SCT035
     TEMPO 2611/2617 29015KT -SHRA SCT040 FEW050CB=
 TAF LZKZ 251700Z 2518/2618 01008KT 9999 FEW045 SCT060
     TEMPO 2518/2519 34016KT -SHRA FEW040CB BKN050
     PROB30 TEMPO 2519/2522 5000 TSRA BKN030 SCT040CB
     BECMG 2607/2609 35005KT FEW030 SCT090
     TEMPO 2610/2616 -SHRA SCT030TCU BKN060=
 TAF LZTT 251700Z 2518/2618 03007KT 9999 SCT060
     TEMPO 2518/2521 25008KT -SHRA FEW045CB SCT060
     BECMG 2520/2522 VRB02KT
     PROB30 TEMPO 2523/2602 6000 -TSRA BKN013 SCT030CB
     BECMG 2606/2608 05010KT SCT040
     TEMPO 2610/2615 VRB20KT TSRA BKN030 SCT040CB=
 

25.05.2016 - 17:00 UTC

TAF LZSL 251700Z 2518/2603 36010KT 9999 SCT060
     PROB40 TEMPO 2518/2519 -SHRA FEW040CB SCT060
     BECMG 2519/2521 35004KT CAVOK=
 TAF LZPP 251700Z 2518/2603 30010KT CAVOK
     BECMG 2519/2521 36006KT=
 TAF LZZI 251700Z 2518/2603 03004KT 9999 SCT060
     TEMPO 2518/2519 34012KT FEW050CB SCT060
     PROB30 TEMPO 2520/2523 -TSRA SCT030 SCT040CB=
 

25.05.2016 - 14:00 UTC

TAF LZSL 251400Z 2515/2524 01010KT 9999 SCT055
     TEMPO 2515/2517 33015KT SHRA BKN045 FEW050CB
     BECMG 2518/2520 36004KT CAVOK=
 TAF LZPP 251400Z 2515/2524 33010KT CAVOK
     TEMPO 2515/2517 31015KT 9999 -SHRA SCT040 FEW050CB
     BECMG 2518/2520 36006KT=
 TAF LZZI 251400Z 2515/2524 01008KT 9999 SCT060
     TEMPO 2515/2519 34012KT -SHRA BKN040 FEW050CB
     PROB30 TEMPO 2515/2517 5000 TSRA BKN025 SCT030CB
     BECMG 2519/2521 VRB02KT CAVOK=
 

25.05.2016 - 14:00 UTC

TAF LZSL 251400Z 2515/2524 01010KT 9999 SCT055
     TEMPO 2515/2517 33015KT SHRA BKN045 FEW050CB
     BECMG 2518/2520 36004KT CAVOK=
 TAF LZPP 251400Z 2515/2524 33010KT CAVOK
     TEMPO 2515/2517 31015KT 9999 -SHRA SCT040 FEW050CB
     BECMG 2518/2520 36006KT=
 TAF LZZI 251400Z 2515/2524 01008KT 9999 SCT060
     TEMPO 2515/2519 34012KT -SHRA BKN040 FEW050CB
     PROB30 TEMPO 2515/2517 5000 TSRA BKN025 SCT030CB
     BECMG 2519/2521 VRB02KT CAVOK=
 

25.05.2016 - 11:00 UTC

TAF LZSL 251100Z 2512/2521 01014KT 9999 SCT040
     TEMPO 2512/2516 33015KT SHRA BKN030 FEW040CB
     BECMG 2516/2518 36006KT=
 TAF LZPP 251100Z 2512/2521 34010KT 9999 SCT045
     TEMPO 2512/2513 33015G25KT
     TEMPO 2512/2516 -SHRA SCT040 FEW050CB
     BECMG 2519/2521 36006KT CAVOK=
 TAF LZZI 251100Z 2512/2521 02008KT 9999 SCT050
     TEMPO 2512/2519 34012KT -SHRA BKN040 FEW050CB
     PROB30 TEMPO 2512/2516 5000 TSRA BKN025 SCT030CB=
 

25.05.2016 - 11:00 UTC

TAF LZIB 251100Z 2512/2612 31015KT 9999 FEW030
     TEMPO 2512/2514 29015G25KT
     PROB30 TEMPO 2512/2516 7000 TSRA BKN030 SCT040CB
     BECMG 2515/2517 31008KT
     BECMG 2520/2522 CAVOK
     BECMG 2608/2610 9999 SCT025=
 TAF LZKZ 251100Z 2512/2612 02015KT 9999 FEW045 SCT060
     TEMPO 2512/2519 -SHRA FEW045CB SCT050
     PROB40 TEMPO 2512/2517 01025KT TSRA BKN030 FEW040CB
     BECMG 2520/2522 01008KT CAVOK
     BECMG 2607/2609 9999 FEW030 SCT090=
 TAF LZTT 251100Z 2512/2612 03012KT 9999 SCT060
     TEMPO 2512/2520 FEW045CB SCT060
     TEMPO 2512/2517 4000 TSRA SCT025CB BKN060
     BECMG 2520/2522 VRB02KT
     PROB30 TEMPO 2600/2604 6000 -TSRA BKN010 SCT030CB
     BECMG 2606/2608 05010KT=
 

25.05.2016 - 11:00 UTC

TAF LZSL 251100Z 2512/2521 01014KT 9999 SCT040
     TEMPO 2512/2516 33015KT SHRA BKN030 FEW040CB
     BECMG 2516/2518 36006KT=
 TAF LZPP 251100Z 2512/2521 34010KT 9999 SCT045
     TEMPO 2512/2513 33015G25KT
     TEMPO 2512/2516 -SHRA SCT040 FEW050CB
     BECMG 2519/2521 36006KT CAVOK=
 TAF LZZI 251100Z 2512/2521 02008KT 9999 SCT050
     TEMPO 2512/2519 34012KT -SHRA BKN040 FEW050CB
     PROB30 TEMPO 2512/2516 5000 TSRA BKN025 SCT030CB=
 

25.05.2016 - 05:00 UTC

TAF AMD LZSL 250834Z 2508/2515 02015KT 9999 SCT040
     TEMPO 2508/2513 02015G30KT
     PROB40 TEMPO 2511/2515 33015KT SHRA BKN030 FEW050CB=
 

25.05.2016 - 08:00 UTC

TAF LZSL 250800Z 2509/2518 01014KT 9999 SCT040
     TEMPO 2511/2516 33015KT SHRA BKN030 FEW040CB
     BECMG 2516/2518 36006KT=
 TAF LZPP 250800Z 2509/2518 34010KT 9999 SCT035
     TEMPO 2509/2513 33015G25KT
     TEMPO 2511/2516 -SHRA BKN030 FEW040TCU=
 TAF LZZI 250800Z 2509/2518 02008KT 9999 SCT040
     TEMPO 2510/2517 34012KT SHRA BKN030 SCT040TCU
     PROB30 TEMPO 2511/2515 5000 TSRA BKN020 SCT030CB=
 

25.05.2016 - 08:00 UTC

TAF LZSL 250800Z 2509/2518 01014KT 9999 SCT040
     TEMPO 2511/2516 33015KT SHRA BKN030 FEW040CB
     BECMG 2516/2518 36006KT=
 TAF LZPP 250800Z 2509/2518 34010KT 9999 SCT035
     TEMPO 2509/2513 33015G25KT
     TEMPO 2511/2516 -SHRA BKN030 FEW040TCU=
 TAF LZZI 250800Z 2509/2518 02008KT 9999 SCT040
     TEMPO 2510/2517 34012KT SHRA BKN030 SCT040TCU
     PROB30 TEMPO 2511/2515 5000 TSRA BKN020 SCT030CB=
 

25.05.2016 - 05:00 UTC

TAF LZSL 250500Z 2506/2515 VRB02KT 2000 BCFG BKN003
     BECMG 2506/2508 02006KT 9999 FEW030
     BECMG 2509/2511 34010KT SCT040
     TEMPO 2511/2515 SHRA BKN040 FEW050TCU=
 TAF LZPP 250500Z 2506/2515 35010KT 9999 SCT035
     TEMPO 2506/2513 34015G25KT
     TEMPO 2511/2515 SHRA BKN030 FEW040TCU=
 TAF LZZI 250500Z 2506/2515 VRB02KT 6000 FEW010
     BECMG 2506/2508 01006KT 9999 FEW030
     BECMG 2508/2510 SCT045
     TEMPO 2510/2515 34008KT SHRA FEW050TCU BKN060
     PROB30 TEMPO 2512/2515 5000 TSRA BKN040 FEW043CB=
 

25.05.2016 - 05:00 UTC

TAF LZIB 250500Z 2506/2606 31015KT 9999 FEW030 SCT090
     TEMPO 2506/2512 32020G30KT
     TEMPO 2506/2516 7000 SHRA BKN040 SCT050TCU
     BECMG 2514/2516 32008KT
     BECMG 2520/2522 CAVOK=
 TAF LZKZ 250500Z 2506/2606 02010KT 9999 FEW040 SCT100
     TEMPO 2510/2518 02015KT SHRA SCT035TCU BKN050
     PROB40 TEMPO 2512/2517 5000 TSRA BKN030 FEW040CB
     BECMG 2518/2520 01006KT
     BECMG 2520/2522 CAVOK=
 TAF LZTT 250500Z 2506/2606 27006KT 9999 SCT050
     BECMG 2506/2508 04010KT
     TEMPO 2508/2516 SHRA SCT040 FEW045TCU
     PROB40 TEMPO 2510/2515 6000 TSRA FEW011 SCT035CB BKN060
     BECMG 2520/2522 VRB02KT CAVOK
     PROB30 TEMPO 2600/2606 5000 BR FEW005=
 

25.05.2016 - 05:00 UTC

TAF LZSL 250500Z 2506/2515 VRB02KT 2000 BCFG BKN003
     BECMG 2506/2508 02006KT 9999 FEW030
     BECMG 2509/2511 34010KT SCT040
     TEMPO 2511/2515 SHRA BKN040 FEW050TCU=
 TAF LZPP 250500Z 2506/2515 35010KT 9999 SCT035
     TEMPO 2506/2513 34015G25KT
     TEMPO 2511/2515 SHRA BKN030 FEW040TCU=
 TAF LZZI 250500Z 2506/2515 VRB02KT 6000 FEW010
     BECMG 2506/2508 01006KT 9999 FEW030
     BECMG 2508/2510 SCT045
     TEMPO 2510/2515 34008KT SHRA FEW050TCU BKN060
     PROB30 TEMPO 2512/2515 5000 TSRA BKN040 FEW043CB=
 

25.05.2016 - 02:00 UTC

TAF LZSL 250200Z 2503/2512 VRB02KT 2000 BR BKN003
     TEMPO 2503/2505 0200 FG OVC001
     BECMG 2506/2508 02006KT 9999 FEW030
     BECMG 2509/2511 SCT040=
 TAF LZZI 250200Z 2503/2512 VRB02KT 9999 SCT015 SCT090
     TEMPO 2503/2506 3000 BR SCT005
     PROB40 TEMPO 2503/2505 0500 FG BKN001
     BECMG 2506/2508 01006KT
     BECMG 2508/2510 SCT045=
 

25.05.2016 - 02:00 UTC

TAF LZSL 250200Z 2503/2512 VRB02KT 2000 BR BKN003
     TEMPO 2503/2505 0200 FG OVC001
     BECMG 2506/2508 02006KT 9999 FEW030
     BECMG 2509/2511 SCT040=
 TAF LZZI 250200Z 2503/2512 VRB02KT 9999 SCT015 SCT090
     TEMPO 2503/2506 3000 BR SCT005
     PROB40 TEMPO 2503/2505 0500 FG BKN001
     BECMG 2506/2508 01006KT
     BECMG 2508/2510 SCT045=
 
MAPA | METAR | TAF | METEO SITUÁCIA

METAR - Letisková meteo správa

Letisková meteorologická správa METAR

Meteorologické informácie z ďalších profesionálnych meteorologických staníc SHMÚ zobrazené v tvare zodpovedajúcom pravidlám kódovania správ METAR sú uvedené v položke „METSYN Informácie o správe METAR

25.05.2016 - 20:30 UTC

METAR LZIB 252030Z VRB05KT CAVOK 17/12 Q1013=
 METAR LZKZ 252030Z VRB02KT CAVOK 15/10 Q1010=
 METAR LZPP 252030Z AUTO VRB01KT 9999 NCD 16/13 Q1012=
 METAR LZSL 252030Z 34005KT CAVOK 15/10 Q1012=
 METAR LZTT 252030Z 33004KT 290V010 9999 FEW058 10/08 Q1012=
 METAR LZZI 252030Z 08004KT CAVOK 15/11 Q1013=
 

25.05.2016 - 20:00 UTC

METAR LZIB 252000Z 28006KT 210V340 CAVOK 17/12 Q1012=
 METAR LZKZ 252000Z 01005KT CAVOK 18/10 Q1010=
 METAR LZPP 252000Z 06003KT 020V100 CAVOK 16/13 Q1012=
 METAR LZSL 252000Z VRB01KT CAVOK 17/10 Q1012=
 METAR LZTT 252000Z VRB04KT 9999 FEW058 SCT093 11/09 Q1012=
 METAR LZZI 252000Z VRB02KT CAVOK 16/10 Q1012=
 

25.05.2016 - 20:00 UTC

METAR LZMC 252000Z 00000KT 8000 NSC 14/12 Q1013=
 METAR LZPW 252000Z 16005KT 9999 FEW040CB FEW050 13/11
 Q1010=
 
načítavam...